Time;durP1;ratioP1;P1;durP2;ratioP2;P2;SDS_P1;SDS_P2;PMS_P1;PMS_P2;Temp;Humidity;BMP_temperature;BMP_pressure;BME280_temperature;BME280_humidity;BME280_pressure;Samples;Min_cycle;Max_cycle;Signal;HPM_P1;HPM_P2
2023/10/01 00:00:26;;;;;;;14.82;9.00;;;15.60;99.90;;;;;;5012214;28;20057;-60
2023/10/01 00:02:53;;;;;;;13.85;9.63;;;15.50;99.90;;;;;;5013080;28;20104;-63
2023/10/01 00:05:22;;;;;;;14.90;9.45;;;15.50;99.90;;;;;;5012819;28;20080;-61
2023/10/01 00:07:51;;;;;;;15.45;9.25;;;15.50;99.90;;;;;;4995894;28;20049;-62
2023/10/01 00:10:21;;;;;;;13.82;8.88;;;15.40;99.90;;;;;;5012213;28;20478;-62
2023/10/01 00:12:50;;;;;;;14.65;9.85;;;15.40;99.90;;;;;;4995125;28;20084;-61
2023/10/01 00:15:25;;;;;;;19.95;9.57;;;15.30;99.90;;;;;;4995821;28;20049;-61
2023/10/01 00:17:55;;;;;;;18.65;8.93;;;15.30;99.90;;;;;;4979670;28;20068;-62
2023/10/01 00:20:24;;;;;;;13.70;8.18;;;15.20;99.90;;;;;;5012428;28;20378;-61
2023/10/01 00:22:57;;;;;;;11.90;8.25;;;15.20;99.90;;;;;;5012687;28;20061;-61
2023/10/01 00:25:24;;;;;;;12.48;8.30;;;15.30;99.90;;;;;;5012265;28;20058;-62
2023/10/01 00:27:51;;;;;;;18.65;8.73;;;15.20;99.90;;;;;;4994612;28;20054;-61
2023/10/01 00:30:17;;;;;;;13.65;8.73;;;15.30;99.90;;;;;;4995156;28;20046;-60
2023/10/01 00:32:44;;;;;;;15.88;9.48;;;15.30;99.90;;;;;;5012387;28;20050;-63
2023/10/01 00:35:11;;;;;;;14.48;8.30;;;15.30;99.90;;;;;;5012609;28;20232;-62
2023/10/01 00:37:38;;;;;;;14.77;7.90;;;15.40;99.90;;;;;;4995192;28;20355;-61
2023/10/01 00:40:10;;;;;;;12.43;8.07;;;15.40;99.90;;;;;;5011540;28;20054;-61
2023/10/01 00:42:39;;;;;;;12.65;8.98;;;15.40;99.90;;;;;;5011963;28;20061;-62
2023/10/01 00:45:08;;;;;;;11.73;8.52;;;15.40;99.90;;;;;;5012573;28;20049;-60
2023/10/01 00:47:39;;;;;;;13.65;9.82;;;15.50;99.90;;;;;;5012178;28;20121;-61
2023/10/01 00:50:12;;;;;;;17.77;8.82;;;15.50;99.90;;;;;;5011788;28;20046;-61
2023/10/01 00:52:41;;;;;;;13.23;8.75;;;15.50;99.90;;;;;;5011930;28;20053;-60
2023/10/01 00:55:13;;;;;;;12.05;9.10;;;15.40;99.90;;;;;;5011933;28;20132;-61
2023/10/01 00:57:41;;;;;;;11.27;8.80;;;15.50;99.90;;;;;;4994418;28;20057;-61
2023/10/01 01:00:16;;;;;;;14.82;9.20;;;15.40;99.90;;;;;;4976891;28;20069;-61
2023/10/01 01:03:00;;;;;;;13.85;9.38;;;15.50;99.90;;;;;;4994562;28;20049;-61
2023/10/01 01:05:41;;;;;;;13.35;9.13;;;15.50;99.90;;;;;;4994538;28;20049;-60
2023/10/01 01:08:21;;;;;;;11.25;9.18;;;15.40;99.90;;;;;;4966031;28;20042;-62
2023/10/01 01:10:52;;;;;;;14.80;9.75;;;15.50;99.90;;;;;;5012061;28;20293;-62
2023/10/01 01:13:23;;;;;;;12.77;9.20;;;15.50;99.90;;;;;;5010933;28;20050;-62
2023/10/01 01:15:51;;;;;;;12.88;9.30;;;15.50;99.90;;;;;;5011820;28;20113;-61
2023/10/01 01:18:21;;;;;;;12.68;8.77;;;15.50;99.90;;;;;;4993223;28;20391;-60
2023/10/01 01:20:49;;;;;;;15.35;10.55;;;15.40;99.90;;;;;;5011810;28;20050;-63
2023/10/01 01:23:19;;;;;;;12.35;9.90;;;15.50;99.90;;;;;;5011426;28;20053;-61
2023/10/01 01:25:49;;;;;;;16.20;9.75;;;15.50;99.90;;;;;;5011234;28;20085;-61
2023/10/01 01:28:24;;;;;;;14.30;9.02;;;15.40;99.90;;;;;;5010591;28;20053;-62
2023/10/01 01:30:52;;;;;;;14.32;9.73;;;15.40;99.90;;;;;;4994170;28;20062;-62
2023/10/01 01:33:26;;;;;;;16.67;10.45;;;15.40;99.90;;;;;;4994005;28;20128;-62
2023/10/01 01:35:57;;;;;;;16.20;10.65;;;15.40;99.90;;;;;;5011253;28;20041;-63
2023/10/01 01:38:24;;;;;;;12.63;9.80;;;15.40;99.90;;;;;;5010152;28;20072;-62
2023/10/01 01:40:52;;;;;;;15.57;10.00;;;15.40;99.90;;;;;;5011108;28;20060;-59
2023/10/01 01:43:22;;;;;;;13.35;10.60;;;15.40;99.90;;;;;;5010865;28;20046;-62
2023/10/01 01:45:55;;;;;;;13.55;9.55;;;15.30;99.90;;;;;;5011006;28;20084;-61
2023/10/01 01:48:25;;;;;;;14.80;10.32;;;15.30;99.90;;;;;;5009662;28;20057;-59
2023/10/01 01:51:03;;;;;;;12.27;8.80;;;15.30;99.90;;;;;;4993435;28;20046;-62
2023/10/01 01:53:36;;;;;;;12.88;9.57;;;15.40;99.90;;;;;;5010880;28;20054;-61
2023/10/01 01:56:11;;;;;;;14.50;8.43;;;15.30;99.90;;;;;;5010242;28;20370;-62
2023/10/01 01:58:43;;;;;;;13.18;9.55;;;15.30;99.90;;;;;;5009666;28;20054;-60
2023/10/01 02:03:38;;;;;;;14.30;9.65;;;15.40;99.90;;;;;;5010733;28;20108;-61
2023/10/01 02:06:08;;;;;;;13.52;9.55;;;15.40;99.90;;;;;;5010257;28;20478;-61
2023/10/01 02:08:49;;;;;;;14.63;9.82;;;15.40;99.90;;;;;;4976401;28;20038;-59
2023/10/01 02:11:18;;;;;;;14.90;9.60;;;15.40;99.90;;;;;;5010342;28;20061;-61
2023/10/01 02:13:46;;;;;;;17.17;10.15;;;15.50;99.90;;;;;;5010503;28;20338;-61
2023/10/01 02:19:17;;;;;;;15.95;9.75;;;15.40;99.90;;;;;;5009869;28;20049;-61
2023/10/01 02:22:05;;;;;;;13.90;10.20;;;15.50;99.90;;;;;;5010563;28;20046;-62
2023/10/01 02:27:19;;;;;;;13.48;10.20;;;15.40;99.90;;;;;;4995824;28;20065;-61
2023/10/01 02:30:33;;;;;;;15.45;9.30;;;15.40;99.90;;;;;;5018360;28;20220;-60
2023/10/01 02:33:24;;;;;;;18.55;9.52;;;15.40;99.90;;;;;;5001884;28;20050;-62
2023/10/01 02:35:35;;;;;;;14.10;9.55;;;15.50;99.90;;;;;;4999753;28;20502;-61
2023/10/01 02:38:36;;;;;;;12.52;9.43;;;15.40;99.90;;;;;;5009492;28;20216;-61
2023/10/01 02:41:01;;;;;;;12.95;9.95;;;15.40;99.90;;;;;;5009792;28;20064;-62
2023/10/01 02:43:40;;;;;;;14.55;10.18;;;15.40;99.90;;;;;;5009982;28;20069;-62
2023/10/01 02:46:11;;;;;;;13.85;9.73;;;15.40;99.90;;;;;;5010088;28;20516;-62
2023/10/01 02:48:41;;;;;;;15.77;10.65;;;15.40;99.90;;;;;;5009358;28;20042;-62
2023/10/01 02:51:14;;;;;;;14.95;9.80;;;15.40;99.90;;;;;;4992632;28;20053;-61
2023/10/01 02:54:03;;;;;;;14.70;10.25;;;15.40;99.90;;;;;;5009898;28;20053;-62
2023/10/01 02:56:52;;;;;;;14.15;9.63;;;15.40;99.90;;;;;;4992121;28;20069;-61
2023/10/01 02:59:20;;;;;;;11.70;9.50;;;15.40;99.90;;;;;;5008923;28;20110;-62
2023/10/01 03:01:46;;;;;;;14.40;10.05;;;15.40;99.90;;;;;;4991998;28;20045;-62
2023/10/01 03:04:17;;;;;;;10.65;8.85;;;15.40;99.90;;;;;;4992206;28;20050;-62
2023/10/01 03:06:54;;;;;;;12.40;9.68;;;15.40;99.90;;;;;;5009338;28;20060;-60
2023/10/01 03:09:34;;;;;;;13.82;9.25;;;15.40;99.90;;;;;;5008636;28;20047;-60
2023/10/01 03:15:00;;;;;;;13.68;9.38;;;15.40;99.90;;;;;;5010072;28;20069;-62
2023/10/01 03:17:34;;;;;;;14.35;8.77;;;15.40;99.90;;;;;;5009517;28;20382;-62
2023/10/01 03:22:52;;;;;;;13.57;9.65;;;15.30;99.90;;;;;;5009906;28;20061;-60
2023/10/01 03:25:27;;;;;;;12.82;8.27;;;15.30;99.90;;;;;;5013858;28;20138;-62
2023/10/01 03:27:58;;;;;;;11.95;7.95;;;15.40;99.90;;;;;;4997863;28;20057;-60
2023/10/01 03:30:32;;;;;;;12.80;8.77;;;15.30;99.90;;;;;;5013520;28;20347;-62
2023/10/01 03:33:07;;;;;;;14.75;8.82;;;15.40;99.90;;;;;;5013581;28;20053;-60
2023/10/01 03:35:36;;;;;;;13.18;9.30;;;15.40;99.90;;;;;;5013685;28;20042;-61
2023/10/01 03:38:09;;;;;;;12.25;8.65;;;15.30;99.90;;;;;;5012792;28;20041;-61
2023/10/01 03:40:57;;;;;;;11.98;7.93;;;15.40;99.90;;;;;;5012043;28;20121;-62
2023/10/01 03:43:32;;;;;;;12.05;8.48;;;15.40;99.90;;;;;;4993108;28;20042;-63
2023/10/01 03:46:19;;;;;;;14.82;8.55;;;15.40;99.90;;;;;;4992551;28;20050;-61
2023/10/01 03:49:00;;;;;;;12.25;8.23;;;15.30;99.90;;;;;;4980647;28;20053;-63
2023/10/01 03:51:58;;;;;;;13.43;8.32;;;15.40;99.90;;;;;;5013425;28;20474;-62
2023/10/01 03:54:52;;;;;;;13.32;8.02;;;15.40;99.90;;;;;;5012436;28;20058;-61
2023/10/01 03:57:19;;;;;;;13.90;8.30;;;15.40;99.90;;;;;;4998544;28;20046;-62
2023/10/01 03:59:52;;;;;;;11.75;8.02;;;15.30;99.90;;;;;;4994996;28;20057;-60
2023/10/01 04:02:27;;;;;;;11.88;9.07;;;15.40;99.90;;;;;;5013036;28;20107;-62
2023/10/01 04:05:04;;;;;;;12.73;8.52;;;15.30;99.90;;;;;;4995520;28;20064;-60
2023/10/01 04:07:42;;;;;;;10.23;8.15;;;15.30;99.90;;;;;;4995045;28;20046;-60
2023/10/01 04:10:13;;;;;;;13.68;8.35;;;15.30;99.90;;;;;;5012656;28;20359;-61
2023/10/01 04:15:40;;;;;;;14.18;7.07;;;15.30;99.90;;;;;;4996953;28;20403;-63
2023/10/01 04:20:48;;;;;;;14.02;8.18;;;15.30;99.90;;;;;;5012642;28;20379;-61
2023/10/01 04:23:25;;;;;;;12.70;7.07;;;15.30;99.90;;;;;;5012575;28;20124;-61
2023/10/01 04:25:51;;;;;;;10.73;7.90;;;15.30;99.90;;;;;;5012623;28;20116;-61
2023/10/01 04:28:20;;;;;;;15.38;8.40;;;15.30;99.90;;;;;;5011525;28;20045;-63
2023/10/01 04:30:51;;;;;;;12.05;8.10;;;15.30;99.90;;;;;;5012424;28;20046;-61
2023/10/01 04:33:23;;;;;;;12.10;7.68;;;15.30;99.90;;;;;;5012442;28;20057;-62
2023/10/01 04:35:55;;;;;;;12.88;7.40;;;15.30;99.90;;;;;;5012406;28;20375;-62
2023/10/01 04:38:23;;;;;;;12.35;7.60;;;15.40;99.90;;;;;;5011275;28;20046;-62
2023/10/01 04:40:49;;;;;;;15.65;8.70;;;15.30;99.90;;;;;;5011910;28;20084;-61
2023/10/01 04:43:16;;;;;;;13.07;7.57;;;15.40;99.90;;;;;;5012067;28;20073;-62
2023/10/01 04:45:44;;;;;;;10.20;7.95;;;15.30;99.90;;;;;;4978366;28;20064;-61
2023/10/01 04:48:22;;;;;;;11.63;8.18;;;15.40;99.90;;;;;;4994332;28;20049;-61
2023/10/01 04:50:53;;;;;;;10.45;7.90;;;15.40;99.90;;;;;;4992709;28;20064;-63
2023/10/01 04:53:25;;;;;;;13.23;7.57;;;15.30;99.90;;;;;;4991997;28;20441;-61
2023/10/01 04:56:05;;;;;;;13.18;7.78;;;15.30;99.90;;;;;;4992396;28;20101;-61
2023/10/01 04:58:41;;;;;;;12.88;7.32;;;15.30;99.90;;;;;;4995088;28;20049;-61
2023/10/01 05:01:16;;;;;;;12.77;7.28;;;15.30;99.90;;;;;;5012126;28;20335;-61
2023/10/01 05:03:48;;;;;;;12.88;7.07;;;15.30;99.90;;;;;;5011465;28;20430;-60
2023/10/01 05:06:19;;;;;;;11.23;8.00;;;15.30;99.90;;;;;;4994131;28;20474;-61
2023/10/01 05:08:49;;;;;;;11.18;8.20;;;15.40;99.90;;;;;;5011073;28;20041;-62
2023/10/01 05:11:22;;;;;;;12.68;7.80;;;15.40;99.90;;;;;;5011963;28;20046;-62
2023/10/01 05:13:51;;;;;;;12.55;7.82;;;15.30;99.90;;;;;;5011326;28;20108;-62
2023/10/01 05:16:20;;;;;;;12.05;7.38;;;15.40;99.90;;;;;;5011337;28;20046;-62
2023/10/01 05:18:46;;;;;;;12.23;7.95;;;15.30;99.90;;;;;;4977743;28;20116;-60
2023/10/01 05:21:13;;;;;;;14.13;7.40;;;15.30;99.90;;;;;;5011585;28;20061;-62
2023/10/01 05:23:43;;;;;;;14.13;8.05;;;15.40;99.90;;;;;;5011377;28;20089;-63
2023/10/01 05:26:10;;;;;;;12.55;8.15;;;15.30;99.90;;;;;;4978669;28;20050;-62
2023/10/01 05:28:42;;;;;;;14.60;8.07;;;15.30;99.90;;;;;;5010736;28;20045;-60
2023/10/01 05:31:12;;;;;;;13.90;7.47;;;15.30;99.90;;;;;;4978659;28;20073;-63
2023/10/01 05:33:39;;;;;;;10.40;7.15;;;15.30;99.90;;;;;;5011150;28;20120;-61
2023/10/01 05:36:05;;;;;;;14.93;8.35;;;15.30;99.90;;;;;;4994217;28;20056;-62
2023/10/01 05:38:35;;;;;;;12.20;7.68;;;15.30;99.90;;;;;;5010283;28;20058;-62
2023/10/01 05:41:09;;;;;;;11.73;7.25;;;15.40;99.90;;;;;;5011554;28;20053;-61
2023/10/01 05:43:43;;;;;;;10.50;7.30;;;15.40;99.90;;;;;;5010884;28;20042;-63
2023/10/01 05:46:14;;;;;;;14.25;7.70;;;15.30;99.90;;;;;;5010925;28;20061;-63
2023/10/01 05:48:43;;;;;;;10.20;7.03;;;15.30;99.90;;;;;;5010118;28;20375;-63
2023/10/01 05:51:11;;;;;;;12.20;7.45;;;15.40;99.90;;;;;;4994087;28;20049;-62
2023/10/01 05:53:40;;;;;;;11.25;7.10;;;15.30;99.90;;;;;;5010955;28;20046;-62
2023/10/01 05:56:07;;;;;;;15.10;7.25;;;15.30;99.90;;;;;;4977676;28;20310;-62
2023/10/01 05:58:34;;;;;;;14.18;7.82;;;15.40;99.90;;;;;;4992934;28;20057;-61
2023/10/01 06:01:05;;;;;;;12.13;7.05;;;15.40;99.90;;;;;;5010785;28;20045;-62
2023/10/01 06:03:33;;;;;;;10.57;7.28;;;15.40;99.90;;;;;;5010775;28;20062;-61
2023/10/01 06:06:10;;;;;;;13.48;6.95;;;15.30;99.90;;;;;;4993620;28;20060;-61
2023/10/01 06:08:46;;;;;;;11.90;6.80;;;15.40;99.90;;;;;;5009986;28;20053;-62
2023/10/01 06:11:15;;;;;;;14.07;7.40;;;15.40;99.90;;;;;;5010579;28;20046;-62
2023/10/01 06:13:49;;;;;;;16.58;7.38;;;15.50;99.90;;;;;;4993044;28;20049;-62
2023/10/01 06:16:23;;;;;;;12.27;6.78;;;15.40;99.90;;;;;;5010766;28;20156;-62
2023/10/01 06:18:58;;;;;;;15.30;7.60;;;15.50;99.90;;;;;;4992736;28;20128;-62
2023/10/01 06:21:31;;;;;;;13.85;7.85;;;15.40;99.90;;;;;;4993468;28;20081;-63
2023/10/01 06:24:03;;;;;;;14.65;7.40;;;15.40;99.90;;;;;;5010024;28;20470;-61
2023/10/01 06:26:50;;;;;;;10.23;6.45;;;15.40;99.90;;;;;;5010443;28;20053;-62
2023/10/01 06:29:17;;;;;;;12.57;7.50;;;15.50;99.90;;;;;;4994939;28;20057;-62
2023/10/01 06:31:50;;;;;;;15.25;7.10;;;15.40;99.90;;;;;;4976550;28;20049;-61
2023/10/01 06:34:24;;;;;;;14.57;7.40;;;15.50;99.90;;;;;;4993665;28;20050;-60
2023/10/01 06:36:58;;;;;;;12.20;6.72;;;15.60;99.90;;;;;;5010082;28;20439;-61
2023/10/01 06:39:35;;;;;;;12.45;6.88;;;15.60;99.90;;;;;;4963471;28;20066;-62
2023/10/01 06:42:18;;;;;;;12.63;7.30;;;15.60;99.90;;;;;;4973556;28;20089;-62
2023/10/01 06:44:58;;;;;;;12.88;7.15;;;15.60;99.90;;;;;;4990459;28;20050;-61
2023/10/01 06:47:28;;;;;;;10.48;6.45;;;15.70;99.90;;;;;;4989973;28;20073;-61
2023/10/01 06:49:57;;;;;;;12.40;7.00;;;15.70;99.90;;;;;;4990250;28;20046;-63
2023/10/01 06:52:26;;;;;;;13.98;7.00;;;15.60;99.90;;;;;;4990371;28;20061;-62
2023/10/01 06:54:57;;;;;;;14.93;6.65;;;15.70;99.90;;;;;;4973170;28;20064;-60
2023/10/01 06:57:27;;;;;;;11.23;6.68;;;15.70;99.90;;;;;;4972474;28;20114;-61
2023/10/01 06:59:57;;;;;;;11.23;6.22;;;15.80;99.90;;;;;;4989309;28;20447;-62
2023/10/01 07:02:25;;;;;;;13.55;6.72;;;15.80;99.90;;;;;;4972646;28;20367;-62
2023/10/01 07:04:59;;;;;;;13.82;7.57;;;15.80;99.90;;;;;;5005714;28;20050;-62
2023/10/01 07:07:28;;;;;;;13.07;6.97;;;15.90;99.90;;;;;;4989747;28;20054;-62
2023/10/01 07:10:00;;;;;;;12.90;6.53;;;15.90;99.90;;;;;;5004482;28;20129;-62
2023/10/01 07:12:26;;;;;;;11.77;6.22;;;16.00;99.90;;;;;;4989892;28;20042;-63
2023/10/01 07:14:57;;;;;;;12.65;6.15;;;16.00;99.90;;;;;;4990447;28;20076;-62
2023/10/01 07:17:25;;;;;;;12.48;6.57;;;16.10;99.90;;;;;;4972681;28;20050;-62
2023/10/01 07:20:02;;;;;;;12.48;6.60;;;16.00;99.90;;;;;;4990088;28;20046;-63
2023/10/01 07:22:31;;;;;;;11.38;6.25;;;16.10;99.90;;;;;;4990032;28;20392;-60
2023/10/01 07:25:28;;;;;;;15.15;6.78;;;16.10;99.90;;;;;;4972310;28;20050;-62
2023/10/01 07:27:51;;;;;;;11.23;6.00;;;16.20;99.90;;;;;;4975845;28;20065;-62
2023/10/01 07:30:18;;;;;;;12.32;6.43;;;16.10;99.90;;;;;;4956329;28;20104;-60
2023/10/01 07:32:44;;;;;;;10.90;6.43;;;16.20;99.90;;;;;;4972708;28;20375;-62
2023/10/01 07:35:13;;;;;;;11.27;6.90;;;16.20;99.90;;;;;;4990080;28;20057;-62
2023/10/01 07:37:41;;;;;;;13.73;6.30;;;16.20;99.90;;;;;;4988606;28;20379;-61
2023/10/01 07:40:09;;;;;;;13.15;6.05;;;16.40;99.90;;;;;;5007906;28;20366;-62
2023/10/01 07:42:49;;;;;;;10.68;5.97;;;16.40;99.90;;;;;;5009818;28;20054;-62
2023/10/01 07:45:16;;;;;;;13.25;6.60;;;16.40;99.90;;;;;;5009633;28;20053;-62
2023/10/01 07:47:44;;;;;;;10.32;5.65;;;16.50;99.90;;;;;;5014982;28;20053;-62
2023/10/01 07:50:14;;;;;;;11.30;6.47;;;16.60;99.90;;;;;;5014289;28;20038;-62
2023/10/01 07:52:41;;;;;;;15.38;6.43;;;16.70;99.90;;;;;;4992252;28;20042;-63
2023/10/01 08:00:44;;;;;;;12.60;6.72;;;16.70;99.90;;;;;;5007734;28;20049;-61
2023/10/01 08:05:48;;;;;;;12.07;6.40;;;16.90;99.90;;;;;;5008099;28;20123;-60
2023/10/01 08:08:37;;;;;;;13.15;6.65;;;17.00;99.90;;;;;;5004783;28;20069;-62
2023/10/01 08:11:37;;;;;;;12.88;6.60;;;17.10;99.90;;;;;;5010988;28;20104;-62
2023/10/01 08:13:51;;;;;;;13.60;6.85;;;17.20;99.90;;;;;;5010208;28;20453;-63
2023/10/01 08:16:17;;;;;;;14.27;6.45;;;17.30;99.90;;;;;;5011458;28;20423;-62
2023/10/01 08:18:46;;;;;;;13.35;6.32;;;17.40;99.90;;;;;;5011792;28;20050;-63
2023/10/01 08:21:17;;;;;;;13.70;6.60;;;17.60;99.90;;;;;;5012456;28;20132;-62
2023/10/01 08:23:54;;;;;;;14.50;7.07;;;17.60;99.90;;;;;;5012841;28;20053;-62
2023/10/01 08:26:43;;;;;;;10.88;6.07;;;17.60;99.90;;;;;;5012183;28;20097;-62
2023/10/01 08:29:14;;;;;;;13.00;6.25;;;17.60;99.90;;;;;;5010813;28;20128;-62
2023/10/01 08:34:27;;;;;;;13.60;5.85;;;17.70;99.90;;;;;;5012248;28;20443;-61
2023/10/01 08:36:56;;;;;;;13.80;6.30;;;17.90;99.90;;;;;;4993821;28;20058;-62
2023/10/01 08:39:47;;;;;;;11.45;6.85;;;18.00;99.90;;;;;;5011793;28;20060;-61
2023/10/01 08:42:17;;;;;;;13.65;5.43;;;18.10;99.90;;;;;;5012437;28;20383;-60
2023/10/01 08:44:51;;;;;;;14.02;6.07;;;18.10;99.90;;;;;;5011815;28;20438;-60
2023/10/01 08:52:58;;;;;;;13.00;6.43;;;18.30;99.90;;;;;;5011587;28;20057;-61
2023/10/01 08:55:39;;;;;;;14.30;6.60;;;18.30;99.90;;;;;;5010692;28;20064;-61
2023/10/01 08:58:15;;;;;;;12.02;6.70;;;18.30;99.90;;;;;;5011810;28;20046;-61
2023/10/01 09:00:48;;;;;;;14.32;6.60;;;18.50;99.90;;;;;;5011615;28;20057;-62
2023/10/01 09:03:29;;;;;;;10.07;6.50;;;18.50;99.90;;;;;;5011908;28;20046;-61
2023/10/01 09:06:03;;;;;;;11.90;7.05;;;18.60;99.90;;;;;;5012115;28;20050;-62
2023/10/01 09:08:31;;;;;;;12.45;6.82;;;18.60;99.90;;;;;;4993821;28;20054;-62
2023/10/01 09:11:23;;;;;;;13.32;7.38;;;18.70;99.90;;;;;;4994486;28;20412;-61
2023/10/01 09:13:58;;;;;;;12.90;7.13;;;18.70;99.90;;;;;;4996905;28;20058;-62
2023/10/01 09:16:34;;;;;;;13.57;6.88;;;19.00;99.90;;;;;;5012213;28;20050;-64
2023/10/01 09:21:47;;;;;;;13.43;6.72;;;19.20;99.90;;;;;;5010831;28;20050;-62
2023/10/01 09:24:42;;;;;;;15.43;7.30;;;19.30;99.90;;;;;;5011580;28;20116;-61
2023/10/01 09:27:20;;;;;;;12.43;6.30;;;19.40;99.90;;;;;;4994306;28;20375;-62
2023/10/01 09:30:23;;;;;;;14.23;7.60;;;19.30;99.90;;;;;;5011073;28;20477;-63
2023/10/01 09:32:51;;;;;;;15.70;7.40;;;19.50;99.90;;;;;;5011170;28;20046;-62
2023/10/01 09:38:13;;;;;;;12.55;6.97;;;19.50;99.90;;;;;;5009017;28;20042;-62
2023/10/01 09:40:45;;;;;;;;;;;19.50;99.90;;;;;;5011666;28;20065;-61
2023/10/01 09:43:19;;;;;;;13.77;7.05;;;19.60;99.90;;;;;;5011523;28;19921;-62
2023/10/01 09:45:49;;;;;;;18.00;7.88;;;19.60;99.90;;;;;;4962868;28;20451;-62
2023/10/01 09:48:30;;;;;;;14.43;7.32;;;19.60;99.90;;;;;;5010524;28;20525;-60
2023/10/01 09:51:07;;;;;;;12.65;6.97;;;19.50;99.90;;;;;;5010649;28;20050;-61
2023/10/01 09:53:53;;;;;;;14.02;6.90;;;19.70;99.90;;;;;;5010321;28;20193;-63
2023/10/01 09:56:26;;;;;;;14.52;7.63;;;19.60;99.90;;;;;;5008721;28;20042;-61
2023/10/01 09:59:03;;;;;;;15.35;7.10;;;19.60;99.90;;;;;;4992888;28;20045;-62
2023/10/01 10:01:35;;;;;;;13.88;7.53;;;19.70;99.90;;;;;;4993565;28;20062;-62
2023/10/01 10:04:04;;;;;;;14.75;6.90;;;19.70;99.90;;;;;;4993440;28;20054;-62
2023/10/01 10:06:32;;;;;;;13.90;7.18;;;19.70;99.90;;;;;;4977710;28;20049;-62
2023/10/01 10:09:06;;;;;;;14.40;7.53;;;19.90;99.90;;;;;;5010024;28;20049;-62
2023/10/01 10:11:43;;;;;;;14.45;7.38;;;19.90;99.90;;;;;;4992890;28;20474;-64
2023/10/01 10:14:39;;;;;;;14.98;7.82;;;20.00;99.90;;;;;;4993876;28;20045;-63
2023/10/01 10:17:19;;;;;;;15.73;7.75;;;20.00;99.90;;;;;;5010463;28;20050;-61
2023/10/01 10:20:24;;;;;;;15.75;8.20;;;19.90;99.90;;;;;;5010474;28;20156;-63
2023/10/01 10:23:21;;;;;;;12.25;7.18;;;20.00;99.90;;;;;;5010271;28;20470;-63
2023/10/01 10:25:47;;;;;;;13.60;7.90;;;20.10;99.90;;;;;;5010191;28;20108;-63
2023/10/01 10:28:25;;;;;;;14.82;7.93;;;20.10;99.90;;;;;;5009650;28;20060;-63
2023/10/01 10:31:29;;;;;;;14.38;7.45;;;20.30;99.90;;;;;;5011201;28;20509;-62
2023/10/01 10:34:36;;;;;;;13.73;7.40;;;20.40;99.90;;;;;;5010356;28;20053;-61
2023/10/01 10:37:06;;;;;;;14.18;7.15;;;20.60;99.90;;;;;;4996107;28;20042;-62
2023/10/01 10:39:45;;;;;;;15.30;7.68;;;20.70;99.90;;;;;;4992556;28;20479;-62
2023/10/01 10:42:57;;;;;;;17.75;7.45;;;20.90;99.90;;;;;;5010373;28;20128;-63
2023/10/01 10:45:45;;;;;;;14.30;7.63;;;20.90;99.90;;;;;;5002480;28;20065;-63
2023/10/01 10:48:14;;;;;;;17.38;7.47;;;21.00;99.90;;;;;;5010119;28;20045;-64
2023/10/01 10:50:53;;;;;;;13.70;7.10;;;21.10;99.90;;;;;;5009981;28;20046;-63
2023/10/01 10:53:20;;;;;;;16.38;7.07;;;21.30;99.90;;;;;;4992464;28;20054;-61
2023/10/01 10:56:08;;;;;;;15.80;7.32;;;21.40;99.90;;;;;;5010169;28;20050;-62
2023/10/01 10:58:53;;;;;;;15.13;7.50;;;21.50;99.90;;;;;;5009411;28;20050;-65
2023/10/01 11:01:19;;;;;;;14.15;6.82;;;21.50;99.90;;;;;;4992806;28;20433;-62
2023/10/01 11:03:50;;;;;;;14.75;7.15;;;21.50;99.90;;;;;;5009693;28;20506;-62
2023/10/01 11:06:20;;;;;;;14.05;7.05;;;21.50;99.90;;;;;;5009931;28;20120;-63
2023/10/01 11:08:52;;;;;;;18.42;7.32;;;21.50;99.90;;;;;;4991004;28;20062;-64
2023/10/01 11:11:39;;;;;;;16.27;8.00;;;21.50;99.90;;;;;;4992476;28;20486;-61
2023/10/01 11:14:16;;;;;;;14.43;7.47;;;21.60;99.90;;;;;;5010119;28;20046;-62
2023/10/01 11:16:46;;;;;;;15.82;6.85;;;21.60;99.90;;;;;;5010100;28;20060;-62
2023/10/01 11:19:19;;;;;;;13.90;7.43;;;21.80;99.90;;;;;;4992786;28;20057;-62
2023/10/01 11:21:55;;;;;;;15.10;7.32;;;21.80;99.90;;;;;;4992623;28;20053;-63
2023/10/01 11:24:29;;;;;;;14.02;6.32;;;21.90;99.90;;;;;;5009598;28;20562;-62
2023/10/01 11:27:25;;;;;;;15.32;7.13;;;21.90;99.90;;;;;;4993277;28;20050;-61
2023/10/01 11:30:12;;;;;;;14.63;7.20;;;22.00;99.90;;;;;;5009607;28;20050;-62
2023/10/01 11:33:13;;;;;;;13.95;7.18;;;22.10;99.90;;;;;;5010103;28;20055;-61
2023/10/01 11:36:06;;;;;;;12.50;6.85;;;22.10;99.90;;;;;;5009859;28;20049;-62
2023/10/01 11:38:44;;;;;;;15.85;6.80;;;22.00;99.90;;;;;;4992028;28;20050;-62
2023/10/01 11:41:10;;;;;;;14.40;7.07;;;22.20;99.90;;;;;;4990128;28;20046;-64
2023/10/01 11:43:41;;;;;;;12.48;6.97;;;22.30;99.90;;;;;;4989751;28;20054;-62
2023/10/01 11:46:18;;;;;;;13.25;6.88;;;22.40;99.90;;;;;;4993183;28;20157;-62
2023/10/01 11:49:02;;;;;;;14.35;6.85;;;22.60;99.90;;;;;;4993980;28;20065;-61
2023/10/01 11:51:30;;;;;;;14.43;7.45;;;22.70;99.90;;;;;;5013423;28;20042;-61
2023/10/01 11:54:11;;;;;;;13.18;6.32;;;22.70;99.90;;;;;;5013390;28;20064;-63
2023/10/01 11:56:46;;;;;;;12.20;7.00;;;22.70;99.90;;;;;;5012513;28;20101;-62
2023/10/01 11:59:18;;;;;;;12.65;6.07;;;22.80;99.90;;;;;;4997436;28;20038;-63
2023/10/01 12:01:52;;;;;;;11.65;6.22;;;22.80;99.90;;;;;;5013087;28;20049;-62
2023/10/01 12:04:24;;;;;;;14.27;6.78;;;22.90;99.90;;;;;;5012917;28;20061;-61
2023/10/01 12:06:56;;;;;;;14.45;6.10;;;22.80;99.90;;;;;;5012721;28;20050;-63
2023/10/01 12:09:24;;;;;;;12.60;6.20;;;22.90;99.90;;;;;;5007221;28;20058;-64
2023/10/01 12:12:03;;;;;;;12.35;6.43;;;22.90;99.90;;;;;;4993429;28;20046;-63
2023/10/01 12:14:51;;;;;;;12.52;6.88;;;23.00;99.90;;;;;;4993433;28;20060;-62
2023/10/01 12:17:23;;;;;;;14.02;6.85;;;23.00;99.90;;;;;;4975440;28;20051;-63
2023/10/01 12:19:57;;;;;;;12.15;6.50;;;23.00;99.90;;;;;;4984299;28;20048;-64
2023/10/01 12:22:24;;;;;;;12.68;6.95;;;22.90;99.90;;;;;;5012852;28;20060;-61
2023/10/01 12:24:57;;;;;;;12.75;6.15;;;22.90;99.90;;;;;;4996743;28;20050;-63
2023/10/01 12:27:41;;;;;;;14.07;6.47;;;22.80;99.90;;;;;;4992329;28;20113;-61
2023/10/01 12:30:27;;;;;;;13.80;6.60;;;22.90;99.90;;;;;;4975785;28;20069;-63
2023/10/01 12:33:02;;;;;;;11.48;6.05;;;22.80;99.90;;;;;;4993214;28;20077;-63
2023/10/01 12:35:31;;;;;;;12.93;6.28;;;22.90;99.90;;;;;;4996272;28;20054;-61
2023/10/01 12:38:05;;;;;;;13.00;6.65;;;23.00;99.90;;;;;;4992161;28;20057;-62
2023/10/01 12:40:35;;;;;;;12.55;8.10;;;23.10;99.90;;;;;;5011296;28;20133;-63
2023/10/01 12:43:03;;;;;;;11.38;7.53;;;23.10;99.90;;;;;;5012398;28;20058;-61
2023/10/01 12:45:31;;;;;;;12.80;7.05;;;23.10;99.90;;;;;;5012027;28;20124;-61
2023/10/01 12:48:08;;;;;;;11.70;6.30;;;23.00;99.90;;;;;;5011551;28;20121;-61
2023/10/01 12:50:34;;;;;;;11.38;6.40;;;23.00;99.90;;;;;;5011929;28;20065;-62
2023/10/01 12:53:19;;;;;;;13.93;6.65;;;22.90;99.90;;;;;;5012134;28;20746;-63
2023/10/01 12:55:52;;;;;;;13.35;6.55;;;22.90;99.90;;;;;;4993621;28;20056;-62
2023/10/01 12:58:37;;;;;;;12.88;6.20;;;22.80;99.90;;;;;;5010580;28;20443;-62
2023/10/01 13:01:23;;;;;;;11.70;6.85;;;22.90;99.90;;;;;;5010891;28;20404;-64
2023/10/01 13:03:51;;;;;;;14.73;7.10;;;22.90;99.90;;;;;;5008793;28;20175;-62
2023/10/01 13:06:17;;;;;;;12.73;6.95;;;22.80;99.90;;;;;;5011821;28;20050;-62
2023/10/01 13:08:44;;;;;;;15.18;7.18;;;22.80;99.90;;;;;;5011301;28;20057;-62
2023/10/01 13:13:55;;;;;;;12.50;6.75;;;22.90;99.90;;;;;;5011586;28;20470;-61
2023/10/01 13:16:21;;;;;;;11.52;6.25;;;22.80;99.90;;;;;;4994449;28;20076;-62
2023/10/01 13:18:49;;;;;;;12.00;6.75;;;22.90;99.90;;;;;;5010744;28;20049;-63
2023/10/01 13:21:15;;;;;;;13.50;6.70;;;23.00;99.90;;;;;;5008691;28;20057;-61
2023/10/01 13:23:42;;;;;;;13.90;6.72;;;23.10;99.90;;;;;;5011600;28;20061;-63
2023/10/01 13:26:15;;;;;;;14.77;7.65;;;23.10;99.90;;;;;;5011651;28;20057;-64
2023/10/01 13:29:00;;;;;;;12.55;6.85;;;23.20;99.90;;;;;;5010974;28;20054;-62
2023/10/01 13:39:44;;;;;;;13.95;6.95;;;23.30;99.90;;;;;;5008337;28;20045;-61
2023/10/01 14:09:52;;;;;;;13.10;7.88;;;23.10;99.90;;;;;;5010620;28;20065;-62
2023/10/01 14:15:20;;;;;;;15.32;7.70;;;23.00;99.90;;;;;;5008811;28;20052;-62
2023/10/01 14:17:54;;;;;;;11.70;6.90;;;22.90;99.90;;;;;;5008195;28;20037;-60
2023/10/01 14:23:39;;;;;;;14.60;7.72;;;22.80;99.90;;;;;;5009025;28;20053;-61
2023/10/01 14:26:20;;;;;;;11.80;7.25;;;22.80;99.90;;;;;;5008400;28;20079;-61
2023/10/01 14:28:49;;;;;;;13.25;7.57;;;22.90;99.90;;;;;;5007937;28;20111;-63
2023/10/01 14:34:03;;;;;;;14.95;7.70;;;22.90;99.90;;;;;;5010225;28;20397;-62
2023/10/01 14:36:30;;;;;;;13.05;7.45;;;22.90;99.90;;;;;;5009975;28;20124;-62
2023/10/01 14:39:01;;;;;;;14.20;7.53;;;22.90;99.90;;;;;;5012860;28;20537;-60
2023/10/01 14:41:28;;;;;;;;;;;22.90;99.90;;;;;;5022622;28;20053;-61